sensor_id;sensor_type;location;lat;lon;timestamp;P1;durP1;ratioP1;P2;durP2;ratioP2
48975;SDS011;34791;52.752;8.346;2023-07-13T00:00:23;78.70;;;26.02;;
48975;SDS011;34791;52.752;8.346;2023-07-13T00:02:48;78.68;;;25.98;;
48975;SDS011;34791;52.752;8.346;2023-07-13T00:05:13;83.35;;;27.38;;
48975;SDS011;34791;52.752;8.346;2023-07-13T00:07:39;86.20;;;26.88;;
48975;SDS011;34791;52.752;8.346;2023-07-13T00:10:04;82.30;;;26.35;;
48975;SDS011;34791;52.752;8.346;2023-07-13T00:12:33;92.72;;;28.30;;
48975;SDS011;34791;52.752;8.346;2023-07-13T00:15:00;79.75;;;27.67;;
48975;SDS011;34791;52.752;8.346;2023-07-13T00:17:26;86.53;;;26.70;;
48975;SDS011;34791;52.752;8.346;2023-07-13T00:19:51;79.55;;;26.95;;
48975;SDS011;34791;52.752;8.346;2023-07-13T00:22:17;80.53;;;26.95;;
48975;SDS011;34791;52.752;8.346;2023-07-13T00:24:43;73.90;;;26.10;;
48975;SDS011;34791;52.752;8.346;2023-07-13T00:27:09;78.15;;;25.88;;
48975;SDS011;34791;52.752;8.346;2023-07-13T00:29:34;76.00;;;25.75;;
48975;SDS011;34791;52.752;8.346;2023-07-13T00:32:00;72.38;;;25.42;;
48975;SDS011;34791;52.752;8.346;2023-07-13T00:34:25;72.78;;;25.35;;
48975;SDS011;34791;52.752;8.346;2023-07-13T00:36:51;74.38;;;24.70;;
48975;SDS011;34791;52.752;8.346;2023-07-13T00:39:16;71.95;;;24.42;;
48975;SDS011;34791;52.752;8.346;2023-07-13T00:41:41;76.87;;;26.10;;
48975;SDS011;34791;52.752;8.346;2023-07-13T00:44:11;76.53;;;24.48;;
48975;SDS011;34791;52.752;8.346;2023-07-13T00:46:38;75.18;;;25.08;;
48975;SDS011;34791;52.752;8.346;2023-07-13T00:49:04;69.70;;;23.02;;
48975;SDS011;34791;52.752;8.346;2023-07-13T00:51:38;70.63;;;24.03;;
48975;SDS011;34791;52.752;8.346;2023-07-13T00:54:05;67.23;;;23.03;;
48975;SDS011;34791;52.752;8.346;2023-07-13T00:56:31;59.87;;;21.00;;
48975;SDS011;34791;52.752;8.346;2023-07-13T00:58:57;58.53;;;20.23;;
48975;SDS011;34791;52.752;8.346;2023-07-13T01:04:23;51.17;;;18.93;;
48975;SDS011;34791;52.752;8.346;2023-07-13T01:06:49;50.70;;;19.77;;
48975;SDS011;34791;52.752;8.346;2023-07-13T01:09:14;49.97;;;18.80;;
48975;SDS011;34791;52.752;8.346;2023-07-13T01:11:41;51.33;;;18.90;;
48975;SDS011;34791;52.752;8.346;2023-07-13T01:14:07;49.88;;;17.65;;
48975;SDS011;34791;52.752;8.346;2023-07-13T01:16:33;45.50;;;17.77;;
48975;SDS011;34791;52.752;8.346;2023-07-13T01:18:59;45.97;;;17.75;;
48975;SDS011;34791;52.752;8.346;2023-07-13T01:21:26;45.23;;;18.10;;
48975;SDS011;34791;52.752;8.346;2023-07-13T01:23:52;48.53;;;18.92;;
48975;SDS011;34791;52.752;8.346;2023-07-13T01:26:21;51.37;;;18.50;;
48975;SDS011;34791;52.752;8.346;2023-07-13T01:28:49;49.23;;;18.37;;
48975;SDS011;34791;52.752;8.346;2023-07-13T01:31:15;50.27;;;16.97;;
48975;SDS011;34791;52.752;8.346;2023-07-13T01:33:40;34.30;;;15.40;;
48975;SDS011;34791;52.752;8.346;2023-07-13T01:36:09;38.42;;;15.80;;
48975;SDS011;34791;52.752;8.346;2023-07-13T01:38:35;42.45;;;15.43;;
48975;SDS011;34791;52.752;8.346;2023-07-13T01:41:04;37.70;;;13.85;;
48975;SDS011;34791;52.752;8.346;2023-07-13T01:43:30;30.70;;;12.73;;
48975;SDS011;34791;52.752;8.346;2023-07-13T01:45:55;32.63;;;11.63;;
48975;SDS011;34791;52.752;8.346;2023-07-13T01:48:20;23.53;;;10.30;;
48975;SDS011;34791;52.752;8.346;2023-07-13T01:50:46;27.30;;;9.63;;
48975;SDS011;34791;52.752;8.346;2023-07-13T01:53:12;22.83;;;9.80;;
48975;SDS011;34791;52.752;8.346;2023-07-13T01:55:37;22.80;;;9.37;;
48975;SDS011;34791;52.752;8.346;2023-07-13T01:58:03;24.70;;;8.47;;
48975;SDS011;34791;52.752;8.346;2023-07-13T02:00:28;18.77;;;7.70;;
48975;SDS011;34791;52.752;8.346;2023-07-13T02:02:53;19.20;;;7.97;;
48975;SDS011;34791;52.752;8.346;2023-07-13T02:05:19;20.63;;;7.83;;
48975;SDS011;34791;52.752;8.346;2023-07-13T02:07:44;19.00;;;7.43;;
48975;SDS011;34791;52.752;8.346;2023-07-13T02:10:10;15.40;;;7.37;;
48975;SDS011;34791;52.752;8.346;2023-07-13T02:12:35;17.97;;;6.80;;
48975;SDS011;34791;52.752;8.346;2023-07-13T02:15:01;19.73;;;6.50;;
48975;SDS011;34791;52.752;8.346;2023-07-13T02:17:26;21.77;;;7.37;;
48975;SDS011;34791;52.752;8.346;2023-07-13T02:19:52;14.63;;;5.93;;
48975;SDS011;34791;52.752;8.346;2023-07-13T02:22:17;17.77;;;6.23;;
48975;SDS011;34791;52.752;8.346;2023-07-13T02:24:42;15.07;;;6.27;;
48975;SDS011;34791;52.752;8.346;2023-07-13T02:27:08;14.70;;;5.90;;
48975;SDS011;34791;52.752;8.346;2023-07-13T02:29:33;16.97;;;6.60;;
48975;SDS011;34791;52.752;8.346;2023-07-13T02:31:58;14.13;;;5.53;;
48975;SDS011;34791;52.752;8.346;2023-07-13T02:34:23;14.40;;;5.97;;
48975;SDS011;34791;52.752;8.346;2023-07-13T02:36:49;11.93;;;5.13;;
48975;SDS011;34791;52.752;8.346;2023-07-13T02:39:14;16.27;;;5.40;;
48975;SDS011;34791;52.752;8.346;2023-07-13T02:41:40;16.77;;;5.83;;
48975;SDS011;34791;52.752;8.346;2023-07-13T02:44:05;11.17;;;5.03;;
48975;SDS011;34791;52.752;8.346;2023-07-13T02:46:33;14.00;;;5.10;;
48975;SDS011;34791;52.752;8.346;2023-07-13T02:48:58;12.43;;;4.60;;
48975;SDS011;34791;52.752;8.346;2023-07-13T02:51:24;17.13;;;5.17;;
48975;SDS011;34791;52.752;8.346;2023-07-13T02:53:49;13.47;;;5.13;;
48975;SDS011;34791;52.752;8.346;2023-07-13T02:56:14;9.37;;;4.40;;
48975;SDS011;34791;52.752;8.346;2023-07-13T02:58:39;15.00;;;4.27;;
48975;SDS011;34791;52.752;8.346;2023-07-13T03:01:08;11.20;;;4.53;;
48975;SDS011;34791;52.752;8.346;2023-07-13T03:03:34;13.57;;;4.47;;
48975;SDS011;34791;52.752;8.346;2023-07-13T03:06:00;11.25;;;4.13;;
48975;SDS011;34791;52.752;8.346;2023-07-13T03:08:27;12.33;;;4.07;;
48975;SDS011;34791;52.752;8.346;2023-07-13T03:10:59;13.63;;;4.90;;
48975;SDS011;34791;52.752;8.346;2023-07-13T03:13:24;12.27;;;4.53;;
48975;SDS011;34791;52.752;8.346;2023-07-13T03:15:49;11.70;;;3.83;;
48975;SDS011;34791;52.752;8.346;2023-07-13T03:18:14;12.50;;;3.95;;
48975;SDS011;34791;52.752;8.346;2023-07-13T03:20:40;9.13;;;3.90;;
48975;SDS011;34791;52.752;8.346;2023-07-13T03:23:05;14.55;;;3.60;;
48975;SDS011;34791;52.752;8.346;2023-07-13T03:25:30;12.47;;;3.57;;
48975;SDS011;34791;52.752;8.346;2023-07-13T03:27:55;9.57;;;3.38;;
48975;SDS011;34791;52.752;8.346;2023-07-13T03:30:21;12.40;;;3.43;;
48975;SDS011;34791;52.752;8.346;2023-07-13T03:32:46;12.53;;;3.37;;
48975;SDS011;34791;52.752;8.346;2023-07-13T03:35:11;11.13;;;3.13;;
48975;SDS011;34791;52.752;8.346;2023-07-13T03:37:37;9.15;;;3.08;;
48975;SDS011;34791;52.752;8.346;2023-07-13T03:40:07;10.82;;;3.60;;
48975;SDS011;34791;52.752;8.346;2023-07-13T03:42:34;12.20;;;3.83;;
48975;SDS011;34791;52.752;8.346;2023-07-13T03:44:59;17.38;;;4.32;;
48975;SDS011;34791;52.752;8.346;2023-07-13T03:47:24;10.68;;;3.80;;
48975;SDS011;34791;52.752;8.346;2023-07-13T03:49:49;8.45;;;3.53;;
48975;SDS011;34791;52.752;8.346;2023-07-13T03:52:15;12.50;;;3.50;;
48975;SDS011;34791;52.752;8.346;2023-07-13T03:54:40;11.73;;;3.13;;
48975;SDS011;34791;52.752;8.346;2023-07-13T03:57:05;10.73;;;3.00;;
48975;SDS011;34791;52.752;8.346;2023-07-13T03:59:31;8.38;;;3.28;;
48975;SDS011;34791;52.752;8.346;2023-07-13T04:01:56;10.55;;;3.10;;
48975;SDS011;34791;52.752;8.346;2023-07-13T04:04:21;10.50;;;3.40;;
48975;SDS011;34791;52.752;8.346;2023-07-13T04:06:47;8.73;;;3.33;;
48975;SDS011;34791;52.752;8.346;2023-07-13T04:09:12;13.18;;;3.10;;
48975;SDS011;34791;52.752;8.346;2023-07-13T04:11:37;11.70;;;3.33;;
48975;SDS011;34791;52.752;8.346;2023-07-13T04:14:03;11.15;;;2.83;;
48975;SDS011;34791;52.752;8.346;2023-07-13T04:16:28;6.45;;;2.40;;
48975;SDS011;34791;52.752;8.346;2023-07-13T04:18:54;7.88;;;2.50;;
48975;SDS011;34791;52.752;8.346;2023-07-13T04:21:22;7.40;;;2.65;;
48975;SDS011;34791;52.752;8.346;2023-07-13T04:23:47;7.03;;;2.22;;
48975;SDS011;34791;52.752;8.346;2023-07-13T04:26:12;4.68;;;2.10;;
48975;SDS011;34791;52.752;8.346;2023-07-13T04:28:38;8.18;;;2.30;;
48975;SDS011;34791;52.752;8.346;2023-07-13T04:31:03;10.20;;;2.42;;
48975;SDS011;34791;52.752;8.346;2023-07-13T04:33:29;8.45;;;2.63;;
48975;SDS011;34791;52.752;8.346;2023-07-13T04:35:55;8.05;;;2.53;;
48975;SDS011;34791;52.752;8.346;2023-07-13T04:38:24;9.50;;;2.80;;
48975;SDS011;34791;52.752;8.346;2023-07-13T04:40:50;11.73;;;3.42;;
48975;SDS011;34791;52.752;8.346;2023-07-13T04:43:16;11.20;;;3.20;;
48975;SDS011;34791;52.752;8.346;2023-07-13T04:45:41;9.50;;;3.50;;
48975;SDS011;34791;52.752;8.346;2023-07-13T04:48:06;7.65;;;3.20;;
48975;SDS011;34791;52.752;8.346;2023-07-13T04:50:31;8.65;;;3.00;;
48975;SDS011;34791;52.752;8.346;2023-07-13T04:52:57;6.03;;;2.60;;
48975;SDS011;34791;52.752;8.346;2023-07-13T04:55:23;9.02;;;3.00;;
48975;SDS011;34791;52.752;8.346;2023-07-13T04:57:48;9.90;;;2.75;;
48975;SDS011;34791;52.752;8.346;2023-07-13T05:00:13;6.57;;;2.45;;
48975;SDS011;34791;52.752;8.346;2023-07-13T05:02:42;6.90;;;2.83;;
48975;SDS011;34791;52.752;8.346;2023-07-13T05:05:08;6.35;;;2.63;;
48975;SDS011;34791;52.752;8.346;2023-07-13T05:07:33;8.18;;;2.63;;
48975;SDS011;34791;52.752;8.346;2023-07-13T05:09:59;7.50;;;2.60;;
48975;SDS011;34791;52.752;8.346;2023-07-13T05:12:25;7.65;;;2.30;;
48975;SDS011;34791;52.752;8.346;2023-07-13T05:14:50;7.32;;;2.20;;
48975;SDS011;34791;52.752;8.346;2023-07-13T05:17:15;6.97;;;2.20;;
48975;SDS011;34791;52.752;8.346;2023-07-13T05:19:41;7.47;;;1.80;;
48975;SDS011;34791;52.752;8.346;2023-07-13T05:22:06;5.35;;;1.63;;
48975;SDS011;34791;52.752;8.346;2023-07-13T05:24:31;6.43;;;1.85;;
48975;SDS011;34791;52.752;8.346;2023-07-13T05:26:56;7.18;;;1.80;;
48975;SDS011;34791;52.752;8.346;2023-07-13T05:29:22;7.00;;;1.80;;
48975;SDS011;34791;52.752;8.346;2023-07-13T05:31:48;6.63;;;1.85;;
48975;SDS011;34791;52.752;8.346;2023-07-13T05:34:13;5.50;;;1.98;;
48975;SDS011;34791;52.752;8.346;2023-07-13T05:36:38;9.32;;;1.67;;
48975;SDS011;34791;52.752;8.346;2023-07-13T05:39:04;7.35;;;1.80;;
48975;SDS011;34791;52.752;8.346;2023-07-13T05:41:29;5.78;;;1.70;;
48975;SDS011;34791;52.752;8.346;2023-07-13T05:43:54;6.50;;;1.67;;
48975;SDS011;34791;52.752;8.346;2023-07-13T05:46:19;8.15;;;2.00;;
48975;SDS011;34791;52.752;8.346;2023-07-13T05:48:44;7.40;;;1.73;;
48975;SDS011;34791;52.752;8.346;2023-07-13T05:51:10;6.07;;;1.50;;
48975;SDS011;34791;52.752;8.346;2023-07-13T05:53:35;7.75;;;1.67;;
48975;SDS011;34791;52.752;8.346;2023-07-13T05:56:01;6.63;;;2.05;;
48975;SDS011;34791;52.752;8.346;2023-07-13T05:58:26;4.22;;;1.50;;
48975;SDS011;34791;52.752;8.346;2023-07-13T06:00:58;6.05;;;1.70;;
48975;SDS011;34791;52.752;8.346;2023-07-13T06:03:24;5.65;;;1.83;;
48975;SDS011;34791;52.752;8.346;2023-07-13T06:05:49;6.45;;;2.20;;
48975;SDS011;34791;52.752;8.346;2023-07-13T06:08:14;5.15;;;2.00;;
48975;SDS011;34791;52.752;8.346;2023-07-13T06:10:39;6.70;;;2.13;;
48975;SDS011;34791;52.752;8.346;2023-07-13T06:13:05;5.95;;;2.05;;
48975;SDS011;34791;52.752;8.346;2023-07-13T06:15:30;6.88;;;2.17;;
48975;SDS011;34791;52.752;8.346;2023-07-13T06:17:55;8.27;;;2.20;;
48975;SDS011;34791;52.752;8.346;2023-07-13T06:20:20;6.10;;;1.70;;
48975;SDS011;34791;52.752;8.346;2023-07-13T06:22:46;6.55;;;1.90;;
48975;SDS011;34791;52.752;8.346;2023-07-13T06:25:11;4.68;;;1.70;;
48975;SDS011;34791;52.752;8.346;2023-07-13T06:27:36;6.93;;;2.03;;
48975;SDS011;34791;52.752;8.346;2023-07-13T06:30:01;6.75;;;1.77;;
48975;SDS011;34791;52.752;8.346;2023-07-13T06:32:26;6.78;;;1.80;;
48975;SDS011;34791;52.752;8.346;2023-07-13T06:34:52;5.18;;;1.90;;
48975;SDS011;34791;52.752;8.346;2023-07-13T06:37:17;4.60;;;1.90;;
48975;SDS011;34791;52.752;8.346;2023-07-13T06:39:42;6.50;;;1.85;;
48975;SDS011;34791;52.752;8.346;2023-07-13T06:42:08;5.38;;;1.90;;
48975;SDS011;34791;52.752;8.346;2023-07-13T06:44:33;7.63;;;2.33;;
48975;SDS011;34791;52.752;8.346;2023-07-13T06:46:58;4.55;;;1.70;;
48975;SDS011;34791;52.752;8.346;2023-07-13T06:49:23;12.05;;;2.03;;
48975;SDS011;34791;52.752;8.346;2023-07-13T06:51:49;7.82;;;2.15;;
48975;SDS011;34791;52.752;8.346;2023-07-13T06:54:14;6.35;;;1.90;;
48975;SDS011;34791;52.752;8.346;2023-07-13T06:56:39;6.57;;;2.00;;
48975;SDS011;34791;52.752;8.346;2023-07-13T06:59:04;7.25;;;1.98;;
48975;SDS011;34791;52.752;8.346;2023-07-13T07:01:30;7.63;;;2.30;;
48975;SDS011;34791;52.752;8.346;2023-07-13T07:03:55;7.50;;;2.15;;
48975;SDS011;34791;52.752;8.346;2023-07-13T07:06:20;10.50;;;2.45;;
48975;SDS011;34791;52.752;8.346;2023-07-13T07:08:48;8.60;;;2.38;;
48975;SDS011;34791;52.752;8.346;2023-07-13T07:11:16;6.88;;;2.30;;
48975;SDS011;34791;52.752;8.346;2023-07-13T07:13:41;4.68;;;1.83;;
48975;SDS011;34791;52.752;8.346;2023-07-13T07:16:06;7.25;;;2.40;;
48975;SDS011;34791;52.752;8.346;2023-07-13T07:18:31;7.70;;;2.40;;
48975;SDS011;34791;52.752;8.346;2023-07-13T07:20:57;5.90;;;1.83;;
48975;SDS011;34791;52.752;8.346;2023-07-13T07:23:22;5.82;;;2.10;;
48975;SDS011;34791;52.752;8.346;2023-07-13T07:25:47;6.22;;;2.20;;
48975;SDS011;34791;52.752;8.346;2023-07-13T07:28:14;8.05;;;2.45;;
48975;SDS011;34791;52.752;8.346;2023-07-13T07:30:46;6.97;;;2.33;;
48975;SDS011;34791;52.752;8.346;2023-07-13T07:33:11;7.05;;;2.30;;
48975;SDS011;34791;52.752;8.346;2023-07-13T07:35:37;6.63;;;2.30;;
48975;SDS011;34791;52.752;8.346;2023-07-13T07:38:02;7.03;;;2.28;;
48975;SDS011;34791;52.752;8.346;2023-07-13T07:40:28;7.32;;;2.10;;
48975;SDS011;34791;52.752;8.346;2023-07-13T07:42:53;7.05;;;2.20;;
48975;SDS011;34791;52.752;8.346;2023-07-13T07:45:19;6.53;;;2.10;;
48975;SDS011;34791;52.752;8.346;2023-07-13T07:47:44;7.10;;;2.60;;
48975;SDS011;34791;52.752;8.346;2023-07-13T07:50:09;7.07;;;2.40;;
48975;SDS011;34791;52.752;8.346;2023-07-13T07:52:35;7.72;;;2.13;;
48975;SDS011;34791;52.752;8.346;2023-07-13T07:55:00;6.28;;;2.00;;
48975;SDS011;34791;52.752;8.346;2023-07-13T07:57:25;7.45;;;2.60;;
48975;SDS011;34791;52.752;8.346;2023-07-13T07:59:50;7.97;;;2.75;;
48975;SDS011;34791;52.752;8.346;2023-07-13T08:02:16;7.50;;;2.30;;
48975;SDS011;34791;52.752;8.346;2023-07-13T08:04:41;6.72;;;2.35;;
48975;SDS011;34791;52.752;8.346;2023-07-13T08:07:07;6.90;;;2.45;;
48975;SDS011;34791;52.752;8.346;2023-07-13T08:09:34;6.65;;;2.55;;
48975;SDS011;34791;52.752;8.346;2023-07-13T08:11:59;6.18;;;2.40;;
48975;SDS011;34791;52.752;8.346;2023-07-13T08:14:24;7.13;;;2.65;;
48975;SDS011;34791;52.752;8.346;2023-07-13T08:16:50;5.82;;;2.45;;
48975;SDS011;34791;52.752;8.346;2023-07-13T08:19:15;7.05;;;2.67;;
48975;SDS011;34791;52.752;8.346;2023-07-13T08:21:40;5.82;;;2.33;;
48975;SDS011;34791;52.752;8.346;2023-07-13T08:24:07;7.47;;;2.50;;
48975;SDS011;34791;52.752;8.346;2023-07-13T08:26:32;4.13;;;2.00;;
48975;SDS011;34791;52.752;8.346;2023-07-13T08:28:57;6.50;;;2.03;;
48975;SDS011;34791;52.752;8.346;2023-07-13T08:31:22;6.70;;;2.20;;
48975;SDS011;34791;52.752;8.346;2023-07-13T08:33:48;6.40;;;2.10;;
48975;SDS011;34791;52.752;8.346;2023-07-13T08:36:13;6.07;;;2.45;;
48975;SDS011;34791;52.752;8.346;2023-07-13T08:38:38;6.28;;;2.40;;
48975;SDS011;34791;52.752;8.346;2023-07-13T08:41:09;7.30;;;2.20;;
48975;SDS011;34791;52.752;8.346;2023-07-13T08:43:36;5.75;;;1.98;;
48975;SDS011;34791;52.752;8.346;2023-07-13T08:46:05;7.05;;;2.22;;
48975;SDS011;34791;52.752;8.346;2023-07-13T08:48:38;7.28;;;2.40;;
48975;SDS011;34791;52.752;8.346;2023-07-13T08:53:38;5.95;;;2.10;;
48975;SDS011;34791;52.752;8.346;2023-07-13T08:56:07;6.72;;;2.10;;
48975;SDS011;34791;52.752;8.346;2023-07-13T08:58:34;5.60;;;2.00;;
48975;SDS011;34791;52.752;8.346;2023-07-13T09:01:08;6.53;;;2.25;;
48975;SDS011;34791;52.752;8.346;2023-07-13T09:03:47;7.18;;;2.30;;
48975;SDS011;34791;52.752;8.346;2023-07-13T09:06:14;5.15;;;1.98;;
48975;SDS011;34791;52.752;8.346;2023-07-13T09:11:27;7.72;;;2.38;;
48975;SDS011;34791;52.752;8.346;2023-07-13T09:16:24;7.10;;;2.42;;
48975;SDS011;34791;52.752;8.346;2023-07-13T09:18:50;6.65;;;1.85;;
48975;SDS011;34791;52.752;8.346;2023-07-13T09:21:17;4.93;;;1.98;;
48975;SDS011;34791;52.752;8.346;2023-07-13T09:23:43;4.47;;;1.80;;
48975;SDS011;34791;52.752;8.346;2023-07-13T09:26:18;5.05;;;1.80;;
48975;SDS011;34791;52.752;8.346;2023-07-13T09:28:46;4.30;;;1.65;;
48975;SDS011;34791;52.752;8.346;2023-07-13T09:31:16;5.88;;;1.75;;
48975;SDS011;34791;52.752;8.346;2023-07-13T09:33:42;5.75;;;1.90;;
48975;SDS011;34791;52.752;8.346;2023-07-13T09:41:50;6.40;;;1.77;;
48975;SDS011;34791;52.752;8.346;2023-07-13T09:44:17;6.10;;;1.60;;
48975;SDS011;34791;52.752;8.346;2023-07-13T09:46:44;5.32;;;1.80;;
48975;SDS011;34791;52.752;8.346;2023-07-13T09:49:10;5.75;;;1.60;;
48975;SDS011;34791;52.752;8.346;2023-07-13T09:51:36;6.47;;;1.80;;
48975;SDS011;34791;52.752;8.346;2023-07-13T09:54:02;6.05;;;2.33;;
48975;SDS011;34791;52.752;8.346;2023-07-13T09:56:27;3.78;;;1.48;;
48975;SDS011;34791;52.752;8.346;2023-07-13T09:58:54;5.32;;;1.50;;
48975;SDS011;34791;52.752;8.346;2023-07-13T10:01:52;5.65;;;1.70;;
48975;SDS011;34791;52.752;8.346;2023-07-13T10:04:14;4.78;;;1.40;;
48975;SDS011;34791;52.752;8.346;2023-07-13T10:06:41;9.18;;;1.75;;
48975;SDS011;34791;52.752;8.346;2023-07-13T10:09:07;3.63;;;1.40;;
48975;SDS011;34791;52.752;8.346;2023-07-13T10:11:34;4.63;;;1.60;;
48975;SDS011;34791;52.752;8.346;2023-07-13T10:14:00;5.28;;;1.65;;
48975;SDS011;34791;52.752;8.346;2023-07-13T10:16:31;3.97;;;1.70;;
48975;SDS011;34791;52.752;8.346;2023-07-13T10:18:58;3.15;;;1.20;;
48975;SDS011;34791;52.752;8.346;2023-07-13T10:21:27;3.03;;;1.38;;
48975;SDS011;34791;52.752;8.346;2023-07-13T10:23:58;4.53;;;1.50;;
48975;SDS011;34791;52.752;8.346;2023-07-13T10:26:26;4.15;;;1.90;;
48975;SDS011;34791;52.752;8.346;2023-07-13T10:28:54;5.80;;;2.05;;
48975;SDS011;34791;52.752;8.346;2023-07-13T10:31:20;5.72;;;1.50;;
48975;SDS011;34791;52.752;8.346;2023-07-13T10:33:46;2.75;;;1.30;;
48975;SDS011;34791;52.752;8.346;2023-07-13T10:36:16;7.07;;;1.60;;
48975;SDS011;34791;52.752;8.346;2023-07-13T10:38:42;4.07;;;1.35;;
48975;SDS011;34791;52.752;8.346;2023-07-13T10:41:11;3.67;;;1.60;;
48975;SDS011;34791;52.752;8.346;2023-07-13T10:43:43;4.90;;;1.58;;
48975;SDS011;34791;52.752;8.346;2023-07-13T10:46:10;5.30;;;1.45;;
48975;SDS011;34791;52.752;8.346;2023-07-13T10:48:36;4.03;;;1.70;;
48975;SDS011;34791;52.752;8.346;2023-07-13T10:51:03;3.70;;;1.50;;
48975;SDS011;34791;52.752;8.346;2023-07-13T10:53:31;3.75;;;1.33;;
48975;SDS011;34791;52.752;8.346;2023-07-13T10:56:04;5.68;;;1.38;;
48975;SDS011;34791;52.752;8.346;2023-07-13T10:58:40;4.35;;;1.30;;
48975;SDS011;34791;52.752;8.346;2023-07-13T11:03:32;5.30;;;1.55;;
48975;SDS011;34791;52.752;8.346;2023-07-13T11:06:11;4.72;;;1.40;;
48975;SDS011;34791;52.752;8.346;2023-07-13T11:08:56;4.30;;;1.70;;
48975;SDS011;34791;52.752;8.346;2023-07-13T11:19:26;3.47;;;1.30;;
48975;SDS011;34791;52.752;8.346;2023-07-13T11:21:30;2.35;;;0.88;;
48975;SDS011;34791;52.752;8.346;2023-07-13T11:28:52;9.15;;;1.60;;
48975;SDS011;34791;52.752;8.346;2023-07-13T11:31:17;4.00;;;1.13;;
48975;SDS011;34791;52.752;8.346;2023-07-13T11:33:51;3.53;;;0.98;;
48975;SDS011;34791;52.752;8.346;2023-07-13T11:36:18;2.45;;;1.10;;
48975;SDS011;34791;52.752;8.346;2023-07-13T11:38:54;3.45;;;1.15;;
48975;SDS011;34791;52.752;8.346;2023-07-13T11:41:22;3.38;;;1.13;;
48975;SDS011;34791;52.752;8.346;2023-07-13T11:43:49;2.80;;;1.20;;
48975;SDS011;34791;52.752;8.346;2023-07-13T11:46:26;3.22;;;1.20;;
48975;SDS011;34791;52.752;8.346;2023-07-13T11:48:51;3.85;;;1.30;;
48975;SDS011;34791;52.752;8.346;2023-07-13T11:51:38;2.90;;;1.00;;
48975;SDS011;34791;52.752;8.346;2023-07-13T11:54:04;3.28;;;1.25;;
48975;SDS011;34791;52.752;8.346;2023-07-13T11:56:30;3.42;;;1.20;;
48975;SDS011;34791;52.752;8.346;2023-07-13T11:58:57;4.63;;;1.35;;
48975;SDS011;34791;52.752;8.346;2023-07-13T12:01:29;3.20;;;1.30;;
48975;SDS011;34791;52.752;8.346;2023-07-13T12:03:57;2.92;;;1.20;;
48975;SDS011;34791;52.752;8.346;2023-07-13T12:06:28;2.88;;;1.00;;
48975;SDS011;34791;52.752;8.346;2023-07-13T12:08:55;2.55;;;1.42;;
48975;SDS011;34791;52.752;8.346;2023-07-13T12:11:21;3.25;;;1.20;;
48975;SDS011;34791;52.752;8.346;2023-07-13T12:13:47;4.00;;;1.40;;
48975;SDS011;34791;52.752;8.346;2023-07-13T12:16:17;2.92;;;1.35;;
48975;SDS011;34791;52.752;8.346;2023-07-13T12:18:47;6.90;;;1.73;;
48975;SDS011;34791;52.752;8.346;2023-07-13T12:21:13;3.60;;;1.23;;
48975;SDS011;34791;52.752;8.346;2023-07-13T12:23:39;3.20;;;1.23;;
48975;SDS011;34791;52.752;8.346;2023-07-13T12:26:05;2.45;;;1.23;;
48975;SDS011;34791;52.752;8.346;2023-07-13T12:28:35;3.53;;;1.50;;
48975;SDS011;34791;52.752;8.346;2023-07-13T12:31:02;4.32;;;1.30;;
48975;SDS011;34791;52.752;8.346;2023-07-13T12:33:28;3.08;;;1.30;;
48975;SDS011;34791;52.752;8.346;2023-07-13T12:35:54;2.38;;;1.10;;
48975;SDS011;34791;52.752;8.346;2023-07-13T12:38:20;2.70;;;1.20;;
48975;SDS011;34791;52.752;8.346;2023-07-13T12:40:50;1.65;;;1.00;;
48975;SDS011;34791;52.752;8.346;2023-07-13T12:43:16;3.22;;;1.30;;
48975;SDS011;34791;52.752;8.346;2023-07-13T12:48:41;4.43;;;1.80;;
48975;SDS011;34791;52.752;8.346;2023-07-13T12:51:08;4.28;;;1.75;;
48975;SDS011;34791;52.752;8.346;2023-07-13T12:53:35;4.70;;;2.00;;
48975;SDS011;34791;52.752;8.346;2023-07-13T12:56:04;4.13;;;1.95;;
48975;SDS011;34791;52.752;8.346;2023-07-13T12:58:32;5.40;;;2.75;;
48975;SDS011;34791;52.752;8.346;2023-07-13T13:00:58;7.25;;;2.58;;
48975;SDS011;34791;52.752;8.346;2023-07-13T13:05:56;5.30;;;3.30;;
48975;SDS011;34791;52.752;8.346;2023-07-13T13:08:21;6.90;;;3.67;;
48975;SDS011;34791;52.752;8.346;2023-07-13T13:10:46;7.30;;;4.05;;
48975;SDS011;34791;52.752;8.346;2023-07-13T13:13:12;8.00;;;4.63;;
48975;SDS011;34791;52.752;8.346;2023-07-13T13:15:37;7.28;;;4.30;;
48975;SDS011;34791;52.752;8.346;2023-07-13T13:18:02;7.47;;;3.95;;
48975;SDS011;34791;52.752;8.346;2023-07-13T13:20:27;6.32;;;3.88;;
48975;SDS011;34791;52.752;8.346;2023-07-13T13:22:53;8.52;;;3.28;;
48975;SDS011;34791;52.752;8.346;2023-07-13T13:25:18;5.90;;;2.95;;
48975;SDS011;34791;52.752;8.346;2023-07-13T13:27:44;4.18;;;2.42;;
48975;SDS011;34791;52.752;8.346;2023-07-13T13:30:14;6.65;;;2.38;;
48975;SDS011;34791;52.752;8.346;2023-07-13T13:32:41;4.97;;;2.00;;
48975;SDS011;34791;52.752;8.346;2023-07-13T13:35:12;6.43;;;2.50;;
48975;SDS011;34791;52.752;8.346;2023-07-13T13:37:38;4.03;;;2.10;;
48975;SDS011;34791;52.752;8.346;2023-07-13T13:40:04;3.92;;;1.98;;
48975;SDS011;34791;52.752;8.346;2023-07-13T13:42:30;5.45;;;2.45;;
48975;SDS011;34791;52.752;8.346;2023-07-13T13:44:55;4.80;;;2.42;;
48975;SDS011;34791;52.752;8.346;2023-07-13T13:47:27;5.97;;;2.78;;
48975;SDS011;34791;52.752;8.346;2023-07-13T13:49:54;4.97;;;2.88;;
48975;SDS011;34791;52.752;8.346;2023-07-13T13:52:19;5.97;;;3.22;;
48975;SDS011;34791;52.752;8.346;2023-07-13T13:54:44;6.13;;;3.20;;
48975;SDS011;34791;52.752;8.346;2023-07-13T13:57:10;6.18;;;3.50;;
48975;SDS011;34791;52.752;8.346;2023-07-13T13:59:37;6.43;;;3.25;;
48975;SDS011;34791;52.752;8.346;2023-07-13T14:02:09;7.68;;;3.58;;
48975;SDS011;34791;52.752;8.346;2023-07-13T14:04:40;5.43;;;2.97;;
48975;SDS011;34791;52.752;8.346;2023-07-13T14:07:05;5.68;;;2.65;;
48975;SDS011;34791;52.752;8.346;2023-07-13T14:09:30;4.80;;;2.47;;
48975;SDS011;34791;52.752;8.346;2023-07-13T14:11:56;4.93;;;2.50;;
48975;SDS011;34791;52.752;8.346;2023-07-13T14:14:22;4.13;;;1.90;;
48975;SDS011;34791;52.752;8.346;2023-07-13T14:16:48;4.07;;;2.05;;
48975;SDS011;34791;52.752;8.346;2023-07-13T14:19:18;4.80;;;2.10;;
48975;SDS011;34791;52.752;8.346;2023-07-13T14:21:44;6.63;;;2.40;;
48975;SDS011;34791;52.752;8.346;2023-07-13T14:24:09;4.55;;;2.30;;
48975;SDS011;34791;52.752;8.346;2023-07-13T14:26:38;3.35;;;1.98;;
48975;SDS011;34791;52.752;8.346;2023-07-13T14:29:05;4.93;;;2.17;;
48975;SDS011;34791;52.752;8.346;2023-07-13T14:31:30;4.10;;;1.90;;
48975;SDS011;34791;52.752;8.346;2023-07-13T14:33:55;6.10;;;2.00;;
48975;SDS011;34791;52.752;8.346;2023-07-13T14:36:23;4.88;;;1.80;;
48975;SDS011;34791;52.752;8.346;2023-07-13T14:38:50;4.03;;;1.80;;
48975;SDS011;34791;52.752;8.346;2023-07-13T14:41:15;3.85;;;1.88;;
48975;SDS011;34791;52.752;8.346;2023-07-13T14:43:40;4.53;;;1.83;;
48975;SDS011;34791;52.752;8.346;2023-07-13T14:46:07;3.83;;;1.70;;
48975;SDS011;34791;52.752;8.346;2023-07-13T14:48:37;4.20;;;1.70;;
48975;SDS011;34791;52.752;8.346;2023-07-13T14:51:02;5.68;;;2.10;;
48975;SDS011;34791;52.752;8.346;2023-07-13T14:53:27;4.50;;;2.30;;
48975;SDS011;34791;52.752;8.346;2023-07-13T14:55:53;6.53;;;2.28;;
48975;SDS011;34791;52.752;8.346;2023-07-13T14:58:18;6.07;;;2.53;;
48975;SDS011;34791;52.752;8.346;2023-07-13T15:00:43;4.35;;;2.15;;
48975;SDS011;34791;52.752;8.346;2023-07-13T15:03:18;4.65;;;2.30;;
48975;SDS011;34791;52.752;8.346;2023-07-13T15:05:46;7.43;;;3.60;;
48975;SDS011;34791;52.752;8.346;2023-07-13T15:08:11;7.38;;;3.60;;
48975;SDS011;34791;52.752;8.346;2023-07-13T15:10:37;8.35;;;4.30;;
48975;SDS011;34791;52.752;8.346;2023-07-13T15:15:45;9.13;;;5.05;;
48975;SDS011;34791;52.752;8.346;2023-07-13T15:18:11;10.57;;;4.63;;